Time;durP1;ratioP1;P1;durP2;ratioP2;P2;SDS_P1;SDS_P2;PMS_P1;PMS_P2;Temp;Humidity;BMP_temperature;BMP_pressure;BME280_temperature;BME280_humidity;BME280_pressure;Samples;Min_cycle;Max_cycle;Signal;HPM_P1;HPM_P2
2023/06/11 00:00:41;;;;;;;9.35;8.43;;;;;;;21.97;54.98;101253.91;5022597;28;20025;-70
2023/06/11 00:03:07;;;;;;;9.15;8.35;;;;;;;21.95;54.89;101247.78;5021259;28;20128;-75
2023/06/11 00:05:32;;;;;;;10.82;9.70;;;;;;;21.84;55.48;101255.03;5020717;28;20036;-74
2023/06/11 00:08:00;;;;;;;10.13;9.20;;;;;;;21.83;55.49;101263.31;5020294;28;20021;-72
2023/06/11 00:10:27;;;;;;;10.40;9.30;;;;;;;21.70;55.75;101258.16;5004920;28;20025;-75
2023/06/11 00:12:52;;;;;;;9.90;8.90;;;;;;;21.82;55.69;101256.16;5003377;28;20029;-72
2023/06/11 00:15:18;;;;;;;10.18;9.27;;;;;;;21.68;56.31;101252.03;5022640;28;20155;-74
2023/06/11 00:17:43;;;;;;;11.77;9.43;;;;;;;21.62;56.30;101253.44;5022762;28;20033;-71
2023/06/11 00:20:09;;;;;;;10.02;9.02;;;;;;;21.60;56.81;101251.84;5022429;28;20033;-73
2023/06/11 00:22:37;;;;;;;10.00;8.90;;;;;;;21.54;56.66;101249.72;5019725;28;20205;-77
2023/06/11 00:25:03;;;;;;;11.15;9.63;;;;;;;21.58;56.82;101248.44;5016408;28;20539;-71
2023/06/11 00:27:28;;;;;;;9.40;8.60;;;;;;;21.52;56.86;101249.84;5023703;28;20032;-73
2023/06/11 00:29:54;;;;;;;12.18;9.65;;;;;;;21.47;56.92;101251.25;5021507;28;20507;-74
2023/06/11 00:32:19;;;;;;;9.70;8.77;;;;;;;21.52;57.31;101249.84;5022515;28;20023;-71
2023/06/11 00:34:45;;;;;;;10.98;8.90;;;;;;;21.41;57.46;101241.00;4999903;28;20048;-75
2023/06/11 00:37:11;;;;;;;10.52;9.60;;;;;;;21.47;57.36;101245.84;5021970;28;20033;-72
2023/06/11 00:39:37;;;;;;;11.27;9.55;;;;;;;21.45;57.67;101240.59;5022068;28;20021;-70
2023/06/11 00:42:02;;;;;;;10.38;9.48;;;;;;;21.33;57.71;101231.72;5016226;28;20032;-70
2023/06/11 00:44:29;;;;;;;10.13;9.23;;;;;;;21.29;57.73;101232.94;5018703;28;20072;-75
2023/06/11 00:46:57;;;;;;;9.93;9.02;;;;;;;21.30;58.08;101231.94;5022881;28;20025;-73
2023/06/11 00:49:23;;;;;;;10.43;9.43;;;;;;;21.28;58.22;101235.81;5022673;28;20045;-72
2023/06/11 00:51:49;;;;;;;11.18;10.07;;;;;;;21.28;57.99;101244.78;5022529;28;20031;-72
2023/06/11 00:54:16;;;;;;;10.25;9.35;;;;;;;21.24;58.43;101237.06;5023146;28;20037;-74
2023/06/11 00:56:48;;;;;;;11.18;9.35;;;;;;;21.25;58.28;101236.06;5023178;28;20076;-74
2023/06/11 00:59:15;;;;;;;10.52;9.52;;;;;;;21.20;58.58;101241.91;5021678;28;20033;-75
2023/06/11 01:01:56;;;;;;;11.80;10.30;;;;;;;21.16;58.55;101234.19;5022014;28;20041;-75
2023/06/11 01:04:23;;;;;;;10.90;9.90;;;;;;;21.16;58.65;101234.19;5023029;28;20553;-72
2023/06/11 01:06:54;;;;;;;11.35;9.93;;;;;;;21.02;59.01;101232.69;5022192;28;20503;-74
2023/06/11 01:09:22;;;;;;;10.63;9.68;;;;;;;21.01;59.25;101239.09;5021401;28;20022;-74
2023/06/11 01:11:53;;;;;;;10.75;9.73;;;;;;;20.96;59.81;101239.53;5014573;28;20025;-76
2023/06/11 01:14:19;;;;;;;10.82;9.73;;;;;;;20.97;59.64;101240.38;5021303;28;20064;-75
2023/06/11 01:16:52;;;;;;;10.98;9.95;;;;;;;20.97;59.60;101240.38;5019831;28;20044;-74
2023/06/11 01:19:33;;;;;;;11.90;10.57;;;;;;;20.96;59.03;101250.34;5017383;28;20100;-72
2023/06/11 01:22:18;;;;;;;12.32;10.45;;;;;;;20.93;59.22;101239.78;5019579;28;20045;-72
2023/06/11 01:25:05;;;;;;;11.30;10.30;;;;;;;20.92;58.88;101250.75;5019867;28;20338;-71
2023/06/11 01:27:49;;;;;;;11.73;10.55;;;;;;;20.85;59.84;101237.75;5022213;28;20053;-72
2023/06/11 01:30:20;;;;;;;;;;;;;;;20.91;57.59;101235.50;5015788;28;20124;-73
2023/06/11 01:32:55;;;;;;;12.05;9.80;;;;;;;20.78;59.82;101249.25;5021280;28;19913;-75
2023/06/11 01:35:21;;;;;;;11.77;10.52;;;;;;;20.72;60.28;101245.22;5017689;28;20033;-74
2023/06/11 01:37:55;;;;;;;11.48;10.23;;;;;;;20.74;60.57;101240.56;5021314;28;20033;-74
2023/06/11 01:40:20;;;;;;;10.48;9.57;;;;;;;20.72;60.71;101247.09;5016948;28;20057;-76
2023/06/11 01:42:45;;;;;;;11.27;10.38;;;;;;;20.66;60.74;101248.47;5019285;28;20120;-72
2023/06/11 01:45:11;;;;;;;11.60;10.48;;;;;;;20.54;61.70;101250.41;5019055;28;20060;-72
2023/06/11 01:47:36;;;;;;;12.23;11.05;;;;;;;20.61;61.96;101245.31;5008921;28;20159;-74
2023/06/11 01:50:05;;;;;;;11.32;10.23;;;;;;;20.48;61.89;101240.09;5015320;28;20069;-71
2023/06/11 01:52:30;;;;;;;12.07;10.93;;;;;;;20.53;61.95;101248.69;5019985;28;20059;-75
2023/06/11 01:54:57;;;;;;;12.05;10.73;;;;;;;20.46;62.24;101249.31;5012947;28;20064;-72
2023/06/11 01:57:22;;;;;;;12.25;11.05;;;;;;;20.47;62.13;101246.47;5019358;28;20689;-72
2023/06/11 01:59:47;;;;;;;12.73;11.52;;;;;;;20.36;62.55;101238.44;5019757;28;20024;-74
2023/06/11 02:02:13;;;;;;;13.70;12.30;;;;;;;20.30;62.64;101250.63;5017364;28;20228;-73
2023/06/11 02:04:38;;;;;;;13.50;11.10;;;;;;;20.32;63.04;101254.06;5021160;28;20048;-72
2023/06/11 02:07:03;;;;;;;12.25;10.85;;;;;;;20.21;63.46;101253.25;5015566;28;20392;-72
2023/06/11 02:09:29;;;;;;;13.35;11.50;;;;;;;20.26;63.31;101251.88;5021732;28;20030;-75
2023/06/11 02:11:54;;;;;;;12.80;11.50;;;;;;;20.23;63.91;101245.84;4998170;28;20028;-73
2023/06/11 02:14:20;;;;;;;12.65;11.38;;;;;;;20.18;63.70;101253.50;5017380;28;21499;-73
2023/06/11 02:16:45;;;;;;;12.45;11.25;;;;;;;20.22;63.51;101252.25;5018191;28;20402;-75
2023/06/11 02:19:11;;;;;;;13.63;11.45;;;;;;;20.13;64.24;101248.50;5002034;28;20026;-71
2023/06/11 02:21:36;;;;;;;12.25;11.15;;;;;;;20.07;63.95;101249.88;5014788;28;20040;-71
2023/06/11 02:24:01;;;;;;;12.43;11.13;;;;;;;20.00;64.72;101253.22;5017341;28;20062;-74
2023/06/11 02:26:27;;;;;;;12.60;11.35;;;;;;;19.90;64.64;101250.44;5019838;28;20549;-74
2023/06/11 02:28:52;;;;;;;13.40;12.10;;;;;;;19.93;64.85;101258.28;5016171;28;20065;-77
2023/06/11 02:31:17;;;;;;;12.50;11.38;;;;;;;19.76;65.94;101250.72;5018959;28;20025;-73
2023/06/11 02:33:43;;;;;;;13.10;11.90;;;;;;;19.79;65.70;101247.78;5018556;28;20091;-73
2023/06/11 02:36:08;;;;;;;13.60;12.13;;;;;;;19.67;66.10;101238.00;5018074;28;20547;-71
2023/06/11 02:38:34;;;;;;;13.57;12.25;;;;;;;19.72;65.98;101251.97;5018994;28;20065;-77
2023/06/11 02:40:59;;;;;;;12.95;11.75;;;;;;;19.70;65.98;101252.09;5018832;28;20036;-75
2023/06/11 02:43:24;;;;;;;13.55;12.30;;;;;;;19.67;66.54;101249.66;5018279;28;20406;-73
2023/06/11 02:45:50;;;;;;;13.75;12.45;;;;;;;19.59;66.17;101246.69;5021016;28;20651;-73
2023/06/11 02:48:15;;;;;;;13.55;12.30;;;;;;;19.63;66.77;101248.19;5016015;28;20481;-75
2023/06/11 02:50:40;;;;;;;13.95;12.68;;;;;;;19.58;66.75;101250.38;5017156;28;20491;-76
2023/06/11 02:53:06;;;;;;;13.60;12.27;;;;;;;19.49;67.12;101245.75;5020190;28;20029;-74
2023/06/11 02:55:31;;;;;;;14.88;13.55;;;;;;;19.50;67.67;101258.25;5023121;28;20442;-72
2023/06/11 02:57:56;;;;;;;14.70;13.40;;;;;;;19.57;66.80;101256.78;5022631;28;20368;-75
2023/06/11 03:00:22;;;;;;;13.90;12.70;;;;;;;19.45;67.99;101253.22;5023428;28;20167;-75
2023/06/11 03:02:47;;;;;;;14.65;13.15;;;;;;;19.47;68.12;101258.50;5024039;28;20033;-72
2023/06/11 03:05:13;;;;;;;15.85;14.35;;;;;;;19.50;67.79;101255.56;5008940;28;20112;-76
2023/06/11 03:07:38;;;;;;;16.02;14.43;;;;;;;19.41;67.87;101251.75;5022944;28;20029;-76
2023/06/11 03:10:04;;;;;;;15.60;14.18;;;;;;;19.38;67.99;101249.31;5023599;28;20037;-70
2023/06/11 03:12:30;;;;;;;15.13;13.73;;;;;;;19.37;68.20;101245.75;5025186;28;20069;-72
2023/06/11 03:14:55;;;;;;;15.98;14.57;;;;;;;19.20;68.86;101250.81;5021526;28;20471;-75
2023/06/11 03:17:21;;;;;;;14.77;13.45;;;;;;;19.22;68.73;101255.09;5023662;28;20471;-71
2023/06/11 03:19:46;;;;;;;15.32;13.93;;;;;;;19.21;69.04;101247.97;5023621;28;20110;-75
2023/06/11 03:22:12;;;;;;;15.98;14.48;;;;;;;19.16;69.02;101256.44;5006347;28;20064;-73
2023/06/11 03:24:37;;;;;;;16.60;14.90;;;;;;;19.20;69.31;101254.38;5023998;28;20045;-75
2023/06/11 03:27:05;;;;;;;16.08;14.48;;;;;;;19.20;69.09;101250.81;5024295;28;20036;-75
2023/06/11 03:29:31;;;;;;;15.85;14.25;;;;;;;19.15;69.31;101253.88;5025052;28;20040;-73
2023/06/11 03:31:56;;;;;;;16.42;14.82;;;;;;;19.10;69.75;101250.66;5024589;28;20025;-75
2023/06/11 03:34:21;;;;;;;16.33;14.75;;;;;;;18.98;69.96;101260.63;5022725;28;20041;-77
2023/06/11 03:36:47;;;;;;;16.60;15.15;;;;;;;18.97;70.61;101260.72;5024762;28;20083;-71
2023/06/11 03:39:12;;;;;;;16.33;14.82;;;;;;;19.01;70.75;101265.75;5021556;28;20040;-75
2023/06/11 03:41:37;;;;;;;16.90;15.32;;;;;;;19.03;70.59;101250.31;5022911;28;20036;-74
2023/06/11 03:44:03;;;;;;;16.50;15.10;;;;;;;19.00;70.51;101258.66;5021278;28;20021;-71
2023/06/11 03:46:29;;;;;;;16.17;14.68;;;;;;;18.98;70.71;101267.84;5024934;28;20025;-74
2023/06/11 03:48:54;;;;;;;16.55;15.15;;;;;;;19.03;70.59;101254.88;5023375;28;20503;-71
2023/06/11 03:51:20;;;;;;;17.35;15.55;;;;;;;18.98;70.80;101259.75;5021721;28;20495;-74
2023/06/11 03:53:45;;;;;;;16.35;14.75;;;;;;;18.99;70.62;101270.44;5022219;28;20044;-74
2023/06/11 03:56:10;;;;;;;17.60;16.00;;;;;;;18.96;70.77;101264.41;5024029;28;20412;-75
2023/06/11 03:58:36;;;;;;;17.02;15.48;;;;;;;18.98;70.77;101266.03;5023114;28;20033;-74
2023/06/11 04:01:01;;;;;;;17.10;15.50;;;;;;;18.96;70.84;101262.56;5024063;28;20025;-75
2023/06/11 04:03:26;;;;;;;16.58;15.18;;;;;;;18.99;71.05;101256.94;5003406;28;20017;-72
2023/06/11 04:05:52;;;;;;;17.30;15.65;;;;;;;18.97;70.84;101268.81;4999925;28;20096;-74
2023/06/11 04:08:17;;;;;;;17.67;16.08;;;;;;;18.97;71.08;101266.13;5023347;28;20454;-72
2023/06/11 04:10:43;;;;;;;17.42;15.73;;;;;;;18.96;71.41;101269.81;5013015;28;20150;-72
2023/06/11 04:13:08;;;;;;;16.75;15.25;;;;;;;18.92;71.01;101261.94;5020489;28;20088;-75
2023/06/11 04:15:34;;;;;;;17.65;15.85;;;;;;;18.98;71.44;101257.03;5017653;28;20033;-70
2023/06/11 04:17:59;;;;;;;17.08;15.48;;;;;;;18.92;71.69;101259.25;5021961;28;20053;-71
2023/06/11 04:20:25;;;;;;;17.15;15.45;;;;;;;19.00;71.53;101255.97;5019418;28;20064;-74
2023/06/11 04:22:50;;;;;;;17.45;15.75;;;;;;;18.98;71.55;101262.44;5022842;28;20396;-74
2023/06/11 04:25:16;;;;;;;16.73;15.30;;;;;;;18.99;71.33;101270.44;5018091;28;20381;-72
2023/06/11 04:27:43;;;;;;;17.33;15.82;;;;;;;18.96;71.43;101272.50;5020681;28;20119;-73
2023/06/11 04:30:12;;;;;;;16.60;15.20;;;;;;;19.01;71.92;101273.00;5021420;28;20650;-73
2023/06/11 04:32:40;;;;;;;17.38;15.68;;;;;;;19.03;71.88;101265.66;5021744;28;20100;-73
2023/06/11 04:35:06;;;;;;;17.05;15.55;;;;;;;19.07;71.25;101270.69;5021831;28;20040;-74
2023/06/11 04:37:38;;;;;;;17.85;16.25;;;;;;;19.13;71.24;101266.63;5023255;28;20083;-75
2023/06/11 04:40:14;;;;;;;17.08;15.68;;;;;;;19.17;71.20;101268.09;5016594;28;20049;-76
2023/06/11 04:42:40;;;;;;;18.30;16.70;;;;;;;19.07;71.28;101262.59;5016948;28;20500;-73
2023/06/11 04:45:10;;;;;;;17.90;16.30;;;;;;;19.13;71.78;101270.19;5019553;28;21270;-76
2023/06/11 04:47:36;;;;;;;17.75;16.05;;;;;;;19.24;71.32;101263.06;5020361;28;20029;-74
2023/06/11 04:50:04;;;;;;;17.95;16.42;;;;;;;19.27;70.93;101269.09;5020044;28;20028;-73
2023/06/11 04:52:43;;;;;;;18.35;16.73;;;;;;;19.36;71.02;101275.59;4997999;28;20107;-75
2023/06/11 04:55:11;;;;;;;17.45;15.75;;;;;;;19.45;70.83;101274.81;5020353;28;20041;-72
2023/06/11 04:57:38;;;;;;;17.98;16.48;;;;;;;19.44;70.54;101261.44;5001908;28;20026;-71
2023/06/11 05:00:07;;;;;;;17.90;16.40;;;;;;;19.60;70.02;101281.66;5021009;28;20025;-72
2023/06/11 05:02:33;;;;;;;17.42;15.82;;;;;;;19.65;69.48;101275.94;5018451;28;20038;-73
2023/06/11 05:04:58;;;;;;;17.77;16.20;;;;;;;19.73;70.01;101286.09;5021429;28;20026;-75
2023/06/11 05:07:23;;;;;;;17.80;16.25;;;;;;;19.79;69.55;101291.84;5021320;28;20029;-74
2023/06/11 05:09:50;;;;;;;18.75;17.05;;;;;;;19.80;68.92;101282.75;5003083;28;20034;-75
2023/06/11 05:12:15;;;;;;;16.77;15.27;;;;;;;19.96;68.32;101286.91;5022050;28;20021;-72
2023/06/11 05:14:42;;;;;;;17.25;15.55;;;;;;;19.96;68.56;101287.75;5022513;28;20028;-72
2023/06/11 05:17:07;;;;;;;16.55;15.00;;;;;;;20.08;68.24;101284.03;5022072;28;20037;-74
2023/06/11 05:19:33;;;;;;;17.58;15.85;;;;;;;20.09;67.57;101290.28;5021952;28;20034;-72
2023/06/11 05:21:58;;;;;;;17.25;14.65;;;;;;;20.17;67.06;101295.03;5018639;28;20104;-74
2023/06/11 05:24:28;;;;;;;16.83;15.23;;;;;;;20.20;67.65;101290.25;5018386;28;20485;-72
2023/06/11 05:26:58;;;;;;;16.23;14.75;;;;;;;20.35;67.00;101294.34;5019444;28;20118;-72
2023/06/11 05:29:24;;;;;;;15.68;14.38;;;;;;;20.42;66.49;101291.97;5021160;28;20471;-72
2023/06/11 05:31:49;;;;;;;15.18;13.77;;;;;;;20.46;66.05;101292.56;5022203;28;20129;-73
2023/06/11 05:34:15;;;;;;;14.68;13.38;;;;;;;20.53;65.73;101291.09;5019678;28;20056;-72
2023/06/11 05:36:42;;;;;;;14.02;12.68;;;;;;;20.56;65.56;101290.81;4999899;28;20071;-71
2023/06/11 05:39:07;;;;;;;14.35;13.00;;;;;;;20.64;65.24;101285.59;5020343;28;20029;-74
2023/06/11 05:41:32;;;;;;;14.18;12.88;;;;;;;20.75;65.43;101290.09;5019346;28;20025;-73
2023/06/11 05:43:58;;;;;;;13.70;12.30;;;;;;;20.91;64.42;101295.03;5022659;28;20049;-71
2023/06/11 05:46:25;;;;;;;13.05;11.90;;;;;;;21.02;64.62;101294.94;5019422;28;20224;-74
2023/06/11 05:48:51;;;;;;;13.27;12.18;;;;;;;21.06;64.62;101289.13;5017229;28;20273;-74
2023/06/11 05:51:16;;;;;;;13.80;12.50;;;;;;;21.17;63.66;101292.75;5014647;28;20021;-73
2023/06/11 05:53:42;;;;;;;13.90;12.50;;;;;;;21.26;63.18;101292.78;5002648;28;20116;-72
2023/06/11 05:56:07;;;;;;;12.45;11.40;;;;;;;21.40;63.25;101286.16;5021619;28;20108;-71
2023/06/11 05:58:33;;;;;;;13.13;11.93;;;;;;;21.53;62.40;101294.91;5018253;28;20139;-76
2023/06/11 06:01:03;;;;;;;11.77;10.77;;;;;;;21.78;62.23;101296.25;5013948;28;20236;-74
2023/06/11 06:03:32;;;;;;;12.77;11.32;;;;;;;21.93;61.63;101293.13;5020456;28;20595;-72
2023/06/11 06:05:59;;;;;;;11.40;10.35;;;;;;;22.19;60.90;101293.47;5020682;28;20607;-75
2023/06/11 06:08:28;;;;;;;11.93;10.90;;;;;;;22.32;59.62;101294.03;5016932;28;20488;-76
2023/06/11 06:10:53;;;;;;;11.77;10.68;;;;;;;22.52;59.36;101300.28;5016966;28;20029;-73
2023/06/11 06:13:19;;;;;;;11.15;10.15;;;;;;;22.78;59.24;101298.72;5000035;28;21372;-74
2023/06/11 06:15:44;;;;;;;11.30;10.10;;;;;;;22.92;57.40;101302.84;5021906;28;20256;-73
2023/06/11 06:18:10;;;;;;;10.20;9.30;;;;;;;23.00;57.17;101300.25;5019242;28;20029;-71
2023/06/11 06:20:38;;;;;;;10.30;9.35;;;;;;;23.21;57.65;101304.59;5021575;28;20025;-72
2023/06/11 06:23:04;;;;;;;11.60;10.45;;;;;;;23.35;56.84;101295.94;5016656;28;20311;-75
2023/06/11 06:25:31;;;;;;;10.68;9.77;;;;;;;23.53;55.68;101296.84;5019689;28;20048;-75
2023/06/11 06:27:57;;;;;;;10.32;9.43;;;;;;;23.73;56.04;101307.66;5019941;28;20021;-75
2023/06/11 06:30:22;;;;;;;10.35;9.45;;;;;;;23.82;54.86;101304.88;5021696;28;20505;-72
2023/06/11 06:32:47;;;;;;;10.95;9.93;;;;;;;24.08;54.58;101302.28;5021186;28;20038;-75
2023/06/11 06:35:13;;;;;;;10.45;9.20;;;;;;;24.23;54.02;101307.16;5023587;28;20060;-75
2023/06/11 06:37:38;;;;;;;12.45;10.23;;;;;;;24.42;54.39;101312.47;5026895;28;20041;-71
2023/06/11 06:40:04;;;;;;;9.90;9.00;;;;;;;24.59;52.43;101316.19;5015369;28;20045;-74
2023/06/11 06:42:29;;;;;;;10.75;9.50;;;;;;;24.64;52.93;101315.72;5018964;28;20084;-77
2023/06/11 06:44:55;;;;;;;10.25;9.38;;;;;;;24.74;52.37;101317.31;4999279;28;20037;-77
2023/06/11 06:47:20;;;;;;;10.82;9.80;;;;;;;24.93;51.81;101316.25;5015983;28;20037;-74
2023/06/11 06:49:45;;;;;;;10.40;9.52;;;;;;;24.93;51.68;101304.53;5020967;28;20061;-76
2023/06/11 06:52:11;;;;;;;11.02;9.98;;;;;;;25.10;51.66;101317.25;5022246;28;20041;-75
2023/06/11 06:54:37;;;;;;;10.07;9.23;;;;;;;25.39;50.87;101311.44;5020505;28;20090;-73
2023/06/11 06:57:03;;;;;;;10.20;9.27;;;;;;;25.49;50.73;101303.13;5015140;28;20029;-77
2023/06/11 06:59:28;;;;;;;10.68;9.68;;;;;;;25.66;50.51;101310.34;4999345;28;20061;-77
2023/06/11 07:01:54;;;;;;;9.77;8.98;;;;;;;25.73;50.30;101310.56;5015579;28;20102;-72
2023/06/11 07:04:19;;;;;;;9.90;8.98;;;;;;;25.79;48.78;101307.19;5020140;28;20311;-77
2023/06/11 07:06:45;;;;;;;10.13;9.13;;;;;;;25.69;48.55;101314.63;5021732;28;20025;-75
2023/06/11 07:09:10;;;;;;;9.02;8.32;;;;;;;25.79;49.24;101313.50;5002983;28;20032;-76
2023/06/11 07:11:39;;;;;;;12.23;9.23;;;;;;;25.90;48.61;101316.94;5022164;28;20425;-73
2023/06/11 07:14:04;;;;;;;9.50;8.70;;;;;;;25.81;49.16;101316.91;5014686;28;20033;-76
2023/06/11 07:16:30;;;;;;;10.02;9.13;;;;;;;25.95;48.55;101317.28;5016129;28;20153;-74
2023/06/11 07:18:55;;;;;;;9.48;8.68;;;;;;;26.19;48.26;101316.47;5019570;28;20151;-72
2023/06/11 07:21:23;;;;;;;8.95;8.13;;;;;;;26.45;47.85;101317.22;5020358;28;20632;-76
2023/06/11 07:23:48;;;;;;;9.80;8.85;;;;;;;26.62;47.16;101314.47;5021163;28;20147;-72
2023/06/11 07:26:15;;;;;;;10.60;8.43;;;;;;;27.11;47.07;101314.44;5020785;28;20025;-75
2023/06/11 07:28:41;;;;;;;9.27;8.52;;;;;;;27.42;45.73;101298.97;5020106;28;20022;-71
2023/06/11 07:31:10;;;;;;;9.55;8.65;;;;;;;27.58;45.21;101305.38;5020851;28;20036;-72
2023/06/11 07:33:35;;;;;;;9.27;8.32;;;;;;;27.76;44.24;101314.22;5019991;28;20018;-75
2023/06/11 07:36:00;;;;;;;9.10;8.18;;;;;;;28.01;43.97;101321.25;5020195;28;20029;-75
2023/06/11 07:38:26;;;;;;;8.95;8.25;;;;;;;28.52;42.64;101316.13;5020099;28;20230;-74
2023/06/11 07:40:52;;;;;;;13.93;8.88;;;;;;;28.81;41.65;101306.28;5002679;28;20136;-77
2023/06/11 07:43:18;;;;;;;8.93;8.07;;;;;;;29.18;41.67;101316.34;5023961;28;20025;-72
2023/06/11 07:45:43;;;;;;;9.13;8.32;;;;;;;29.71;40.40;101319.81;5024477;28;20036;-72
2023/06/11 07:48:09;;;;;;;9.43;8.60;;;;;;;30.04;39.75;101316.63;5023416;28;20043;-72
2023/06/11 07:50:35;;;;;;;9.02;8.23;;;;;;;30.58;38.89;101318.88;5024498;28;20384;-73
2023/06/11 07:53:00;;;;;;;8.55;7.78;;;;;;;31.04;37.80;101320.31;5024392;28;20103;-74
2023/06/11 07:55:25;;;;;;;9.10;8.07;;;;;;;31.47;36.94;101327.34;5025195;28;20076;-75
2023/06/11 07:57:51;;;;;;;8.35;7.57;;;;;;;31.73;36.77;101318.41;5017317;28;20043;-73
2023/06/11 08:00:17;;;;;;;8.95;8.15;;;;;;;31.81;36.02;101322.84;5023344;28;20025;-75
2023/06/11 08:02:43;;;;;;;8.90;7.95;;;;;;;32.18;35.80;101318.75;5023814;28;20040;-74
2023/06/11 08:05:12;;;;;;;8.55;7.93;;;;;;;32.73;35.02;101316.72;5024057;28;20026;-73
2023/06/11 08:07:38;;;;;;;9.15;8.35;;;;;;;33.06;33.70;101321.34;5023453;28;20026;-70
2023/06/11 08:10:04;;;;;;;8.63;7.82;;;;;;;33.13;33.38;101327.72;5024284;28;20617;-73
2023/06/11 08:12:30;;;;;;;8.05;7.35;;;;;;;33.41;32.88;101323.84;5021857;28;20048;-74
2023/06/11 08:14:55;;;;;;;8.20;7.50;;;;;;;33.52;33.05;101317.66;5017312;28;20498;-74
2023/06/11 08:17:21;;;;;;;7.53;6.93;;;;;;;33.33;32.28;101327.69;5023585;28;20112;-72
2023/06/11 08:19:46;;;;;;;8.52;7.72;;;;;;;33.39;33.22;101320.44;5024446;28;20051;-75
2023/06/11 08:22:11;;;;;;;8.27;7.47;;;;;;;33.69;32.46;101326.28;5019340;28;20116;-72
2023/06/11 08:24:39;;;;;;;8.00;7.22;;;;;;;33.75;32.48;101321.81;5018626;28;20389;-73
2023/06/11 08:27:07;;;;;;;7.88;7.10;;;;;;;34.05;31.59;101313.81;5024665;28;20492;-77
2023/06/11 08:29:32;;;;;;;7.55;6.80;;;;;;;34.55;30.66;101316.69;5023835;28;20559;-75
2023/06/11 08:31:57;;;;;;;7.65;7.03;;;;;;;35.02;30.22;101308.84;5022946;28;20105;-74
2023/06/11 08:34:23;;;;;;;7.85;7.15;;;;;;;35.42;29.91;101314.78;5006967;28;20105;-76
2023/06/11 08:36:48;;;;;;;7.50;6.85;;;;;;;35.87;28.68;101312.53;5023987;28;20049;-75
2023/06/11 08:39:14;;;;;;;8.07;6.53;;;;;;;36.24;28.92;101300.50;5023022;28;20061;-75
2023/06/11 08:41:39;;;;;;;6.68;6.00;;;;;;;37.25;27.76;101312.41;5019839;28;20052;-76
2023/06/11 08:44:04;;;;;;;6.53;5.93;;;;;;;37.88;26.28;101311.59;5023982;28;20139;-76
2023/06/11 08:46:34;;;;;;;9.52;6.43;;;;;;;38.44;26.35;101304.28;5016188;28;20025;-72
2023/06/11 08:49:05;;;;;;;7.32;6.50;;;;;;;38.79;25.08;101312.38;5022972;28;20017;-76
2023/06/11 08:51:40;;;;;;;6.88;6.25;;;;;;;37.98;25.22;101308.16;5022720;28;20041;-75
2023/06/11 08:54:10;;;;;;;7.15;6.53;;;;;;;37.84;25.10;101305.66;5023663;28;20132;-72
2023/06/11 08:56:36;;;;;;;6.82;5.90;;;;;;;38.22;25.11;101297.75;5019541;28;20033;-75
2023/06/11 08:59:02;;;;;;;6.28;5.78;;;;;;;38.67;25.02;101308.84;5022166;28;20433;-77
2023/06/11 09:01:29;;;;;;;6.88;6.35;;;;;;;38.78;24.35;101299.56;5023177;28;20475;-73
2023/06/11 09:03:54;;;;;;;6.80;6.20;;;;;;;38.82;23.97;101302.69;5022403;28;20022;-74
2023/06/11 09:06:20;;;;;;;6.53;6.00;;;;;;;38.51;23.75;101298.56;4987901;28;20104;-73
2023/06/11 09:09:02;;;;;;;6.90;6.20;;;;;;;38.68;24.60;101304.94;5004711;28;20504;-74
2023/06/11 09:11:41;;;;;;;;;;;;;;;39.82;23.56;101300.72;5021157;28;20037;-71
2023/06/11 09:14:07;;;;;;;6.40;5.90;;;;;;;39.46;23.48;101299.41;5018456;28;19913;-73
2023/06/11 09:16:40;;;;;;;6.95;6.25;;;;;;;39.42;23.63;101299.09;5019918;28;20170;-74
2023/06/11 09:19:06;;;;;;;6.80;6.10;;;;;;;39.33;23.51;101303.44;5015742;28;20079;-74
2023/06/11 09:21:31;;;;;;;6.13;5.53;;;;;;;39.40;23.24;101301.31;5001120;28;20021;-72
2023/06/11 09:24:09;;;;;;;6.40;5.80;;;;;;;39.25;24.21;101298.31;5022172;28;20106;-75
2023/06/11 09:26:34;;;;;;;7.30;6.10;;;;;;;39.19;23.04;101293.75;4995903;28;20026;-76
2023/06/11 09:29:00;;;;;;;6.20;5.60;;;;;;;39.67;22.92;101293.00;5003491;28;21458;-75
2023/06/11 09:31:26;;;;;;;6.78;6.20;;;;;;;39.77;22.07;101295.09;5005063;28;20165;-73
2023/06/11 09:33:53;;;;;;;6.45;5.80;;;;;;;39.90;22.65;101289.09;5022493;28;20025;-74
2023/06/11 09:36:18;;;;;;;6.13;5.63;;;;;;;39.94;22.55;101289.41;5013463;28;20529;-75
2023/06/11 09:38:47;;;;;;;6.82;6.20;;;;;;;40.23;22.12;101295.59;5019329;28;20029;-73
2023/06/11 09:41:13;;;;;;;6.93;6.13;;;;;;;40.72;21.71;101301.00;5015848;28;20049;-77
2023/06/11 09:43:43;;;;;;;6.35;5.82;;;;;;;40.33;21.77;101296.50;5019096;28;20021;-72
2023/06/11 09:46:11;;;;;;;6.30;5.40;;;;;;;40.33;21.58;101295.66;5020166;28;20450;-72
2023/06/11 09:48:40;;;;;;;6.15;5.55;;;;;;;40.13;21.32;101298.25;5001900;28;20224;-72
2023/06/11 09:51:06;;;;;;;6.35;5.85;;;;;;;40.32;21.70;101303.19;5019636;28;20033;-73
2023/06/11 09:53:33;;;;;;;6.13;5.65;;;;;;;40.32;21.19;101302.34;5017929;28;20211;-74
2023/06/11 09:55:59;;;;;;;6.13;5.53;;;;;;;40.23;21.19;101307.56;5021495;28;20413;-74
2023/06/11 09:58:27;;;;;;;5.82;5.30;;;;;;;40.32;20.62;101292.03;5021786;28;20079;-75
2023/06/11 10:00:58;;;;;;;6.28;5.78;;;;;;;40.06;20.80;101304.88;5003781;28;20026;-75
2023/06/11 10:03:24;;;;;;;6.10;5.43;;;;;;;40.36;20.83;101311.88;5014899;28;20021;-75
2023/06/11 10:05:50;;;;;;;6.43;5.82;;;;;;;40.38;21.24;101304.06;5021958;28;20101;-74
2023/06/11 10:08:20;;;;;;;6.75;5.80;;;;;;;40.30;20.79;101307.34;5018347;28;20037;-76
2023/06/11 10:10:48;;;;;;;5.85;5.35;;;;;;;40.44;20.27;101304.97;5021038;28;20109;-77
2023/06/11 10:13:27;;;;;;;5.68;5.18;;;;;;;40.74;20.68;101301.59;5021017;28;20508;-76
2023/06/11 10:15:53;;;;;;;6.05;5.45;;;;;;;41.08;19.60;101307.69;5021930;28;20120;-74
2023/06/11 10:18:18;;;;;;;5.70;5.15;;;;;;;40.51;19.61;101300.84;5021434;28;20097;-73
2023/06/11 10:20:54;;;;;;;5.60;5.20;;;;;;;41.34;19.66;101305.03;5020129;28;20037;-73
2023/06/11 10:23:20;;;;;;;6.15;5.47;;;;;;;41.86;19.19;101298.56;5021106;28;20490;-76
2023/06/11 10:25:54;;;;;;;5.80;5.30;;;;;;;41.99;19.25;101292.44;5019498;28;20057;-72
2023/06/11 10:28:33;;;;;;;6.20;5.70;;;;;;;41.43;19.64;101307.06;5020645;28;20029;-74
2023/06/11 10:30:59;;;;;;;6.45;5.75;;;;;;;41.67;19.79;101290.66;5020875;28;20204;-75
2023/06/11 10:33:35;;;;;;;6.10;5.38;;;;;;;41.57;19.86;101304.59;5021387;28;20392;-74
2023/06/11 10:36:01;;;;;;;6.47;5.82;;;;;;;41.24;19.79;101297.44;5021843;28;20080;-76
2023/06/11 10:38:29;;;;;;;5.90;5.50;;;;;;;41.26;19.67;101303.59;5021210;28;20281;-74
2023/06/11 10:41:02;;;;;;;5.72;5.22;;;;;;;41.23;19.41;101305.00;5020403;28;20037;-72
2023/06/11 10:43:30;;;;;;;6.18;4.78;;;;;;;41.24;19.43;101303.03;5016681;28;20068;-74
2023/06/11 10:46:12;;;;;;;5.38;4.88;;;;;;;41.25;19.82;101305.53;4995079;28;20381;-76
2023/06/11 10:48:49;;;;;;;5.37;4.97;;;;;;;41.40;19.54;101303.97;5021752;28;20075;-73
2023/06/11 10:51:15;;;;;;;5.60;5.05;;;;;;;41.64;18.09;101299.59;5020006;28;20041;-74
2023/06/11 10:53:41;;;;;;;5.53;5.00;;;;;;;41.88;18.50;101285.97;5021325;28;20025;-74
2023/06/11 10:56:07;;;;;;;6.03;5.25;;;;;;;41.51;18.52;101291.72;5021517;28;20065;-76
2023/06/11 10:58:33;;;;;;;5.50;4.78;;;;;;;42.12;18.55;101297.47;5021700;28;20184;-74
2023/06/11 11:00:59;;;;;;;5.53;4.60;;;;;;;43.25;17.31;101295.44;5016211;28;20506;-75
2023/06/11 11:03:30;;;;;;;4.95;4.55;;;;;;;43.42;16.79;101295.91;5019488;28;20039;-76
2023/06/11 11:05:57;;;;;;;5.07;4.68;;;;;;;44.22;17.09;101297.72;5020676;28;20025;-75
2023/06/11 11:08:23;;;;;;;5.20;4.22;;;;;;;43.84;16.66;101293.75;5021039;28;20033;-72
2023/06/11 11:11:01;;;;;;;5.40;4.90;;;;;;;43.64;16.91;101294.72;5021389;28;20519;-74
2023/06/11 11:13:30;;;;;;;5.32;4.57;;;;;;;43.95;17.02;101296.25;5002897;28;20542;-71
2023/06/11 11:15:58;;;;;;;5.07;4.38;;;;;;;44.07;16.35;101292.25;5023263;28;20021;-73